Main page
METAR-TAF:

METAR-TAF

Airports :

Amman Civil Airport

Amman, Jordan

latitude: 31-59N, longitude: 035-59E, elevation: 767 m

Current weather observation

The report was made 33 minutes ago, at 23:00 UTC
Wind 5 kt from the West/Southwest
Temperature 22°C
Humidity 41%
Pressure 1012 hPa
Visibility 10 km or more
no clouds below 1500 m and no cumulonimbus

METAR: OJAM 012300Z 24005KT CAVOK 22/08 Q1012 NOSIG

Time: 02:33 (23:33 UTC)

Forecast

The report was made 5 hours and 59 minutes ago, at 17:34 UTC
Forecast valid from 01 at 18 UTC to 02 at 24 UTC
Wind 6 kt from the West
Visibility 10 km or more
no clouds below 1500 m and no cumulonimbus
Probability 40% :
Temporary
from 02 at 00 UTC to 02 at 06 UTC
Wind 1 kt from variable directions
Visibility: 3000 m
Temporary
from 02 at 10 UTC to 02 at 18 UTC
Wind 16 kt from the Southwest
Visibility: 3000 m
Blowing dust

TAF: OJAM 011734Z 0118/0224 28006KT CAVOK PROB40 TEMPO 0200/0206 VRB01KT 3000 TEMPO 0210/0218 23016KT 3000 BLDU

Weather observations and forecasts of more than 4000 airports (METAR and TAF reports).

The available stations are represented by yellow and red dots on the map.

Hover mouse over dot to see the name of the station.

Then click to see weather observations and forecasts.

To change the map : click on the green buttons with a black cross to zoom in, on the green button with a dash to zoom out, or on the green arrows for adjacent maps.


METAR-TAF: